West Dover, VT

4:53 AM EST on March 06, 2015 (GMT -0500)
Upload Testing | Change Station
CLOSE
Current Station
Personal Weather Station
Location: Dover, VT
Elevation: 1916 ft
Nearby Weather Stations

Elev 1916 ft 42.94 °N, 72.88 °W | Updated 36 seconds ago

Clear
Clear
3.9 °F
Feels Like -6 °F
N
5.0
Wind Variable Wind from North
Gusts 10.0 mph

Today
High -- | Low -- °F
--% Chance of Precip.
Yesterday
High -- | Low -- °F
Precip. -- in
6:19 AM 5:46 PM
Full, 100% visible
Pressure 30.44 in
Visibility 10.0 miles
Clouds Clear
Windchill -6 °F
Dew Point -3 °F
Humidity 61%
Rainfall in
Snow Depth Not available.
UV 0 out of 12
Pollen .40 out of 12
Air Quality Not available.
Flu Activity Not available.
METAR KDDH 060854Z AUTO 18003KT 10SM CLR M19/M23 A3038 RMK AO2 SLP306 T11941233 51006

More Conditions Fewer Conditions

Pressure 30.44 in
Visibility 10.0 miles
Clouds Clear
Windchill -6 °F
Dew Point -3 °F
Humidity 61%
Rainfall in
Snow Depth Not available.
UV 0 out of 12
Pollen .40 out of 12
Air Quality Not available.
Flu Activity Not available.
METAR KDDH 060854Z AUTO 18003KT 10SM CLR M19/M23 A3038 RMK AO2 SLP306 T11941233 51006

More Conditions Fewer Conditions

10-Day Weather Forecast

Almanac

Astronomy

Mar. 06, 2015 Rise Set
Actual Time
Civil Twilight
Nautical Twilight
Astronomical Twilight
Moon
Length of Visible Light
Length of Day
Tomorrow will be .
, % of the Moon is Illuminated

Today's Extremes

State Highs State Lows

Community

WunderPhotos

Upload Photos

1,803,213 photos uploaded!

WunderBlogs® & News

Nearby

Air Quality

  Air Quality AQ Index Pollutant
Not available.

Snow Depth

Station Depth Elevation

Earthquake Activity

City Distance Mag. Time & Date
Minimum magnitude displayed is 2.5.

Coastal Water Temperatures

Place Temperature

Nearby Weather Stations